createdAt,value
2022-08-17T00:00:43.601Z,50.14
2022-08-17T00:03:09.976Z,51.02
2022-08-17T00:05:42.302Z,50.40
2022-08-17T00:08:11.317Z,50.38
2022-08-17T00:10:39.869Z,49.88
2022-08-17T00:13:10.319Z,49.97
2022-08-17T00:15:38.747Z,50.11
2022-08-17T00:19:01.401Z,50.19
2022-08-17T00:20:58.276Z,49.03
2022-08-17T00:23:26.805Z,49.33
2022-08-17T00:25:54.941Z,49.16
2022-08-17T00:28:23.062Z,48.72
2022-08-17T00:30:53.535Z,49.02
2022-08-17T00:33:26.930Z,48.85
2022-08-17T00:35:56.387Z,48.48
2022-08-17T00:38:25.512Z,48.42
2022-08-17T00:40:59.223Z,48.61
2022-08-17T00:43:32.864Z,48.21
2022-08-17T00:46:04.429Z,48.39
2022-08-17T00:48:34.441Z,48.69
2022-08-17T00:51:08.446Z,48.58
2022-08-17T00:53:40.432Z,48.84
2022-08-17T00:56:12.269Z,48.82
2022-08-17T00:58:41.304Z,49.02
2022-08-17T01:01:11.385Z,48.86
2022-08-17T01:03:41.865Z,49.17
2022-08-17T01:06:10.214Z,49.54
2022-08-17T01:08:40.634Z,49.70
2022-08-17T01:11:09.558Z,49.55
2022-08-17T01:13:41.693Z,49.51
2022-08-17T01:16:17.308Z,49.61
2022-08-17T01:18:50.514Z,49.64
2022-08-17T01:21:25.962Z,49.96
2022-08-17T01:23:55.566Z,50.15
2022-08-17T01:26:24.497Z,49.58
2022-08-17T01:28:55.695Z,49.68
2022-08-17T01:31:26.731Z,49.32
2022-08-17T01:33:54.775Z,49.39
2022-08-17T01:36:22.990Z,49.38
2022-08-17T01:38:51.301Z,49.38
2022-08-17T01:41:23.712Z,49.44
2022-08-17T01:43:56.972Z,49.63
2022-08-17T01:46:28.230Z,49.51
2022-08-17T01:48:57.840Z,49.26
2022-08-17T01:51:32.628Z,49.96
2022-08-17T01:54:05.161Z,50.31
2022-08-17T01:56:36.724Z,49.46
2022-08-17T01:59:05.052Z,49.82
2022-08-17T02:01:34.929Z,50.04
2022-08-17T02:04:04.062Z,49.96
2022-08-17T02:06:52.501Z,50.53
2022-08-17T02:09:24.103Z,50.36
2022-08-17T02:11:56.237Z,50.80
2022-08-17T02:14:25.416Z,50.50
2022-08-17T02:16:54.616Z,50.57
2022-08-17T02:19:23.287Z,51.25
2022-08-17T02:21:54.117Z,51.26
2022-08-17T02:24:58.685Z,50.75
2022-08-17T02:27:15.044Z,50.77
2022-08-17T02:29:43.229Z,50.91
2022-08-17T02:32:27.141Z,51.05
2022-08-17T02:34:55.911Z,50.75
2022-08-17T02:37:24.070Z,51.06
2022-08-17T02:39:52.137Z,51.21
2022-08-17T02:42:27.859Z,50.81
2022-08-17T02:44:56.228Z,51.17
2022-08-17T02:47:25.029Z,50.85
2022-08-17T02:49:54.353Z,51.40
2022-08-17T02:52:43.191Z,51.21
2022-08-17T02:55:16.475Z,50.95
2022-08-17T02:57:46.332Z,50.76
2022-08-17T03:00:18.051Z,50.51
2022-08-17T03:02:47.194Z,50.51
2022-08-17T03:05:19.526Z,50.24
2022-08-17T03:07:47.988Z,50.05
2022-08-17T03:10:17.357Z,50.10
2022-08-17T03:12:47.942Z,50.21
2022-08-17T03:15:18.658Z,50.53
2022-08-17T03:17:46.898Z,50.35
2022-08-17T03:20:16.217Z,50.50
2022-08-17T03:22:48.063Z,50.49
2022-08-17T03:25:25.605Z,50.49
2022-08-17T03:27:55.589Z,50.73
2022-08-17T03:30:25.482Z,51.08
2022-08-17T03:32:56.247Z,50.85
2022-08-17T03:35:26.939Z,51.78
2022-08-17T03:38:00.545Z,51.83
2022-08-17T03:40:41.805Z,51.81
2022-08-17T03:43:20.183Z,52.36
2022-08-17T03:46:05.839Z,52.23
2022-08-17T03:49:10.487Z,52.02
2022-08-17T03:51:56.003Z,52.52
2022-08-17T03:54:41.523Z,52.52
2022-08-17T03:57:12.624Z,52.70
2022-08-17T03:59:42.506Z,52.90
2022-08-17T04:02:15.664Z,53.14
2022-08-17T04:04:43.757Z,53.31
2022-08-17T04:07:12.145Z,53.32
2022-08-17T04:09:40.200Z,53.37
2022-08-17T04:12:08.653Z,53.44
2022-08-17T04:14:51.751Z,53.07
2022-08-17T04:17:24.924Z,53.23
2022-08-17T04:19:53.686Z,53.02
2022-08-17T04:22:30.385Z,52.52
2022-08-17T04:25:07.592Z,51.80
2022-08-17T04:27:35.928Z,51.41
2022-08-17T04:30:04.150Z,51.04
2022-08-17T04:33:05.221Z,51.19
2022-08-17T04:35:23.855Z,50.79
2022-08-17T04:37:52.122Z,51.37
2022-08-17T04:40:39.606Z,51.48
2022-08-17T04:43:10.193Z,51.70
2022-08-17T04:45:55.192Z,51.78
2022-08-17T04:48:35.537Z,51.69
2022-08-17T04:51:07.220Z,51.96
2022-08-17T04:53:35.577Z,52.28
2022-08-17T04:56:03.954Z,51.68
2022-08-17T04:58:32.029Z,51.85
2022-08-17T05:01:00.228Z,52.13
2022-08-17T05:03:29.703Z,52.11
2022-08-17T05:05:58.256Z,52.19
2022-08-17T05:08:26.429Z,52.21
2022-08-17T05:10:54.440Z,51.83
2022-08-17T05:13:25.111Z,51.83
2022-08-17T05:15:56.794Z,51.51
2022-08-17T05:18:24.920Z,51.78
2022-08-17T05:20:54.981Z,51.76
2022-08-17T05:23:25.271Z,51.71
2022-08-17T05:25:56.380Z,51.13
2022-08-17T05:28:27.539Z,50.50
2022-08-17T05:30:57.172Z,50.32
2022-08-17T05:33:27.783Z,50.36
2022-08-17T05:36:00.172Z,50.36
2022-08-17T05:38:29.991Z,50.78
2022-08-17T05:40:58.926Z,50.37
2022-08-17T05:43:29.680Z,50.64
2022-08-17T05:46:04.571Z,50.42
2022-08-17T05:48:40.026Z,49.75
2022-08-17T05:51:44.519Z,49.25
2022-08-17T05:54:30.252Z,49.01
2022-08-17T05:57:34.257Z,48.63
2022-08-17T06:00:12.142Z,48.42
2022-08-17T06:02:58.100Z,48.13
2022-08-17T06:05:43.191Z,48.05
2022-08-17T06:08:22.051Z,48.21
2022-08-17T06:11:03.892Z,47.75
2022-08-17T06:13:50.955Z,47.59
2022-08-17T06:16:33.776Z,47.12
2022-08-17T06:19:07.726Z,47.15
2022-08-17T06:21:40.013Z,46.44
2022-08-17T06:24:23.317Z,46.81
2022-08-17T06:26:53.460Z,46.78
2022-08-17T06:29:35.441Z,47.16
2022-08-17T06:32:05.044Z,46.12
2022-08-17T06:34:34.403Z,46.01
2022-08-17T06:37:15.714Z,44.98
2022-08-17T06:39:55.177Z,44.19
2022-08-17T06:42:55.018Z,44.44
2022-08-17T06:45:28.915Z,44.65
2022-08-17T06:48:05.819Z,44.62
2022-08-17T06:50:38.053Z,44.43
2022-08-17T06:53:15.552Z,44.37
2022-08-17T06:55:51.787Z,44.44
2022-08-17T06:58:22.985Z,44.07
2022-08-17T07:01:01.103Z,44.14
2022-08-17T07:03:38.081Z,44.97
2022-08-17T07:06:11.970Z,44.09
2022-08-17T07:08:50.580Z,44.17
2022-08-17T07:11:27.213Z,43.34
2022-08-17T07:14:12.801Z,43.28
2022-08-17T07:16:46.832Z,43.15
2022-08-17T07:19:16.843Z,43.38
2022-08-17T07:21:55.153Z,42.92
2022-08-17T07:24:35.700Z,43.18
2022-08-17T07:27:09.360Z,43.14
2022-08-17T07:29:42.396Z,42.85
2022-08-17T07:32:13.589Z,43.21
2022-08-17T07:35:02.386Z,43.03
2022-08-17T07:37:33.675Z,42.32
2022-08-17T07:40:20.422Z,42.15
2022-08-17T07:43:11.460Z,42.04
2022-08-17T07:46:13.082Z,41.35
2022-08-17T07:48:43.856Z,41.04
2022-08-17T07:51:27.508Z,41.06
2022-08-17T07:54:13.136Z,41.32
2022-08-17T07:56:46.819Z,41.00
2022-08-17T07:59:23.331Z,41.11
2022-08-17T08:02:05.316Z,40.87
2022-08-17T08:04:59.272Z,40.41
2022-08-17T08:07:29.555Z,40.47
2022-08-17T08:10:09.053Z,40.19
2022-08-17T08:12:39.018Z,39.93
2022-08-17T08:15:18.936Z,39.86
2022-08-17T08:17:51.978Z,39.96
2022-08-17T08:20:51.126Z,39.85
2022-08-17T08:23:26.048Z,39.33
2022-08-17T08:26:04.603Z,38.46
2022-08-17T08:28:43.622Z,38.08
2022-08-17T08:31:25.291Z,38.18
2022-08-17T08:34:06.849Z,37.91
2022-08-17T08:37:14.243Z,37.49
2022-08-17T08:39:48.457Z,37.42
2022-08-17T08:42:25.456Z,37.01
2022-08-17T08:45:04.603Z,36.43
2022-08-17T08:47:57.922Z,37.03
2022-08-17T08:50:42.902Z,36.04
2022-08-17T08:53:24.507Z,35.75
2022-08-17T08:55:57.231Z,33.69
2022-08-17T08:58:42.046Z,33.80
2022-08-17T09:01:19.850Z,33.97
2022-08-17T09:04:25.582Z,32.72
2022-08-17T09:07:06.441Z,31.54
2022-08-17T09:09:50.941Z,31.72
2022-08-17T09:12:27.009Z,30.89
2022-08-17T09:15:02.549Z,32.17
2022-08-17T09:17:40.179Z,32.76
2022-08-17T09:20:27.701Z,32.19
2022-08-17T09:23:03.775Z,32.51
2022-08-17T09:25:35.140Z,32.84
2022-08-17T09:28:08.268Z,32.56
2022-08-17T09:30:42.252Z,32.68
2022-08-17T09:33:12.679Z,32.31
2022-08-17T09:35:49.221Z,31.76
2022-08-17T09:38:28.104Z,32.04
2022-08-17T09:41:08.975Z,32.02
2022-08-17T09:43:43.201Z,29.91
2022-08-17T09:46:18.299Z,29.24
2022-08-17T09:48:55.377Z,27.86
2022-08-17T09:51:32.064Z,26.92
2022-08-17T09:54:21.049Z,26.59
2022-08-17T09:57:27.911Z,26.51
2022-08-17T10:00:09.378Z,27.22
2022-08-17T10:03:03.360Z,28.17
2022-08-17T10:05:41.269Z,28.17
2022-08-17T10:08:22.920Z,26.98
2022-08-17T10:11:05.759Z,28.11
2022-08-17T10:13:39.430Z,28.40
2022-08-17T10:16:18.638Z,29.37
2022-08-17T10:18:55.786Z,28.60
2022-08-17T10:21:44.474Z,29.24
2022-08-17T10:24:36.961Z,28.61
2022-08-17T10:27:10.249Z,29.31
2022-08-17T10:29:49.068Z,29.47
2022-08-17T10:32:32.554Z,28.92
2022-08-17T10:35:18.928Z,29.76
2022-08-17T10:38:15.915Z,29.25
2022-08-17T10:40:53.100Z,29.50
2022-08-17T10:43:34.950Z,28.71
2022-08-17T10:46:29.876Z,28.76
2022-08-17T10:49:34.049Z,29.56
2022-08-17T10:52:03.948Z,28.79
2022-08-17T10:54:38.331Z,29.67
2022-08-17T10:57:34.867Z,29.69
2022-08-17T11:00:03.565Z,29.55
2022-08-17T11:02:40.699Z,29.07
2022-08-17T11:05:30.488Z,29.33
2022-08-17T11:08:20.056Z,28.84
2022-08-17T11:11:00.655Z,29.35
2022-08-17T11:13:40.012Z,28.78
2022-08-17T11:16:27.279Z,28.33
2022-08-17T11:19:26.655Z,28.20
2022-08-17T11:22:20.607Z,27.83
2022-08-17T11:24:51.365Z,27.31
2022-08-17T11:27:27.309Z,27.06
2022-08-17T11:30:02.123Z,26.62
2022-08-17T11:32:47.372Z,27.11
2022-08-17T11:35:38.902Z,26.77
2022-08-17T11:38:19.597Z,26.78
2022-08-17T11:41:10.496Z,26.41
2022-08-17T11:44:10.547Z,26.26
2022-08-17T11:47:18.866Z,26.31
2022-08-17T11:50:19.261Z,26.05
2022-08-17T11:52:49.821Z,26.23
2022-08-17T11:55:51.355Z,26.22
2022-08-17T11:58:41.069Z,26.02
2022-08-17T12:01:12.361Z,25.97
2022-08-17T12:03:55.807Z,25.11
2022-08-17T12:06:45.330Z,25.30
2022-08-17T12:09:19.397Z,24.97
2022-08-17T12:12:13.163Z,24.73
2022-08-17T12:15:09.491Z,25.24
2022-08-17T12:17:40.167Z,24.50
2022-08-17T12:20:17.176Z,24.69
2022-08-17T12:22:53.818Z,24.40
2022-08-17T12:25:32.876Z,24.81
2022-08-17T12:28:06.839Z,24.78
2022-08-17T12:30:37.306Z,24.55
2022-08-17T12:33:13.425Z,24.26
2022-08-17T12:36:00.217Z,24.54
2022-08-17T12:38:32.601Z,24.14
2022-08-17T12:41:24.473Z,24.26
2022-08-17T12:44:02.403Z,24.34
2022-08-17T12:46:34.843Z,24.41
2022-08-17T12:49:18.659Z,24.38
2022-08-17T12:51:48.993Z,24.65
2022-08-17T12:54:31.618Z,24.64
2022-08-17T12:57:06.284Z,24.34
2022-08-17T12:59:34.496Z,24.65
2022-08-17T13:02:02.814Z,24.53
2022-08-17T13:04:32.376Z,24.38
2022-08-17T13:07:01.952Z,24.80
2022-08-17T13:09:35.567Z,24.49
2022-08-17T13:12:08.835Z,24.26
2022-08-17T13:14:37.497Z,24.01
2022-08-17T13:17:11.254Z,24.11
2022-08-17T13:19:50.919Z,24.36
2022-08-17T13:22:24.651Z,24.38
2022-08-17T13:24:55.005Z,24.15
2022-08-17T13:27:25.684Z,24.54
2022-08-17T13:29:58.065Z,23.95
2022-08-17T13:32:37.165Z,23.60
2022-08-17T13:35:49.884Z,23.62
2022-08-17T13:38:36.562Z,23.01
2022-08-17T13:41:06.438Z,23.72
2022-08-17T13:43:45.005Z,23.87
2022-08-17T13:46:19.764Z,24.06
2022-08-17T13:48:58.024Z,23.85
2022-08-17T13:51:32.683Z,23.35
2022-08-17T13:54:06.790Z,23.54
2022-08-17T13:56:40.064Z,23.43
2022-08-17T13:59:13.028Z,24.07
2022-08-17T14:01:45.235Z,24.27
2022-08-17T14:04:17.562Z,24.10
2022-08-17T14:06:53.947Z,24.01
2022-08-17T14:09:27.157Z,23.97
2022-08-17T14:11:56.777Z,24.10
2022-08-17T14:14:24.871Z,24.06
2022-08-17T14:16:54.233Z,24.38
2022-08-17T14:19:23.192Z,24.34
2022-08-17T14:21:56.481Z,24.21
2022-08-17T14:24:28.585Z,24.14
2022-08-17T14:26:57.715Z,23.84
2022-08-17T14:29:28.250Z,23.69
2022-08-17T14:31:57.376Z,23.49
2022-08-17T14:34:26.159Z,23.50
2022-08-17T14:36:54.327Z,23.00
2022-08-17T14:39:22.331Z,23.33
2022-08-17T14:41:53.032Z,24.58
2022-08-17T14:44:21.147Z,24.85
2022-08-17T14:46:50.608Z,25.65
2022-08-17T14:49:20.719Z,25.92
2022-08-17T14:51:48.861Z,26.27
2022-08-17T14:54:33.729Z,26.33
2022-08-17T14:57:25.985Z,25.54
2022-08-17T14:59:55.199Z,25.66
2022-08-17T15:02:29.985Z,25.30
2022-08-17T15:05:03.115Z,25.14
2022-08-17T15:07:31.657Z,25.27
2022-08-17T15:10:01.592Z,24.95
2022-08-17T15:12:34.115Z,24.63
2022-08-17T15:15:04.572Z,24.79
2022-08-17T15:17:43.920Z,24.96
2022-08-17T15:20:16.197Z,24.92
2022-08-17T15:22:46.973Z,24.55
2022-08-17T15:25:15.640Z,24.81
2022-08-17T15:27:45.144Z,24.52
2022-08-17T15:30:14.047Z,24.55
2022-08-17T15:32:48.203Z,24.96
2022-08-17T15:35:27.490Z,25.03
2022-08-17T15:37:58.167Z,25.14
2022-08-17T15:40:26.271Z,25.38
2022-08-17T15:42:55.588Z,25.62
2022-08-17T15:45:27.123Z,26.17
2022-08-17T15:47:55.364Z,26.77
2022-08-17T15:50:23.761Z,26.44
2022-08-17T15:52:57.757Z,26.91
2022-08-17T15:55:27.757Z,26.94
2022-08-17T15:57:57.318Z,27.32
2022-08-17T16:00:28.502Z,27.10
2022-08-17T16:03:44.794Z,27.06
2022-08-17T16:05:46.217Z,27.08
2022-08-17T16:08:20.099Z,27.26
2022-08-17T16:10:49.246Z,26.94
2022-08-17T16:13:19.465Z,27.04
2022-08-17T16:15:57.083Z,26.85
2022-08-17T16:18:31.075Z,27.29
2022-08-17T16:21:22.626Z,27.15
2022-08-17T16:23:52.648Z,27.22
2022-08-17T16:26:23.021Z,27.69
2022-08-17T16:28:53.257Z,28.29
2022-08-17T16:31:21.446Z,28.81
2022-08-17T16:34:03.817Z,29.25
2022-08-17T16:36:39.312Z,29.13
2022-08-17T16:39:07.349Z,29.24
2022-08-17T16:41:45.191Z,29.16
2022-08-17T16:44:17.097Z,29.34
2022-08-17T16:46:46.246Z,29.26
2022-08-17T16:49:35.358Z,28.84
2022-08-17T16:52:04.411Z,29.75
2022-08-17T16:54:32.677Z,29.06
2022-08-17T16:57:02.979Z,29.40
2022-08-17T16:59:41.042Z,29.73
2022-08-17T17:02:14.733Z,29.27
2022-08-17T17:04:49.298Z,29.82
2022-08-17T17:07:34.857Z,29.88
2022-08-17T17:10:07.914Z,30.27
2022-08-17T17:12:59.534Z,30.83
2022-08-17T17:15:41.479Z,31.63
2022-08-17T17:18:14.833Z,31.68
2022-08-17T17:20:48.838Z,32.11
2022-08-17T17:23:32.552Z,31.68
2022-08-17T17:26:11.169Z,32.43
2022-08-17T17:28:47.541Z,32.52
2022-08-17T17:31:19.152Z,32.70
2022-08-17T17:33:50.934Z,32.35
2022-08-17T17:36:26.936Z,32.81
2022-08-17T17:39:01.373Z,32.81
2022-08-17T17:41:34.329Z,32.69
2022-08-17T17:44:07.553Z,33.30
2022-08-17T17:46:40.990Z,33.47
2022-08-17T17:49:11.298Z,33.42
2022-08-17T17:52:07.134Z,33.51
2022-08-17T17:54:51.060Z,33.40
2022-08-17T17:57:30.892Z,33.33
2022-08-17T18:00:08.017Z,33.59
2022-08-17T18:02:51.695Z,33.76
2022-08-17T18:05:38.676Z,33.60
2022-08-17T18:08:17.664Z,33.56
2022-08-17T18:10:54.552Z,33.63
2022-08-17T18:13:29.564Z,33.53
2022-08-17T18:16:00.866Z,34.16
2022-08-17T18:18:38.733Z,34.47
2022-08-17T18:21:16.784Z,34.05
2022-08-17T18:23:53.927Z,33.96
2022-08-17T18:26:41.828Z,34.61
2022-08-17T18:29:42.533Z,34.43
2022-08-17T18:32:28.707Z,34.20
2022-08-17T18:35:01.292Z,34.37
2022-08-17T18:37:39.600Z,34.47
2022-08-17T18:40:37.650Z,34.56
2022-08-17T18:43:13.841Z,34.74
2022-08-17T18:45:48.017Z,34.90
2022-08-17T18:48:28.953Z,35.07
2022-08-17T18:51:01.180Z,35.20
2022-08-17T18:53:38.563Z,35.05
2022-08-17T18:56:30.901Z,35.41
2022-08-17T18:59:12.358Z,35.76
2022-08-17T19:01:53.815Z,35.59
2022-08-17T19:04:36.107Z,35.28
2022-08-17T19:07:12.235Z,35.44
2022-08-17T19:09:47.038Z,35.50
2022-08-17T19:12:27.654Z,35.30
2022-08-17T19:14:57.596Z,35.19
2022-08-17T19:17:36.304Z,35.40
2022-08-17T19:20:15.212Z,35.43
2022-08-17T19:22:57.435Z,35.75
2022-08-17T19:25:30.527Z,35.89
2022-08-17T19:28:04.147Z,36.08
2022-08-17T19:30:51.474Z,36.00
2022-08-17T19:33:20.086Z,36.13
2022-08-17T19:36:00.088Z,36.28
2022-08-17T19:38:41.800Z,36.25
2022-08-17T19:41:18.025Z,36.58
2022-08-17T19:44:11.636Z,36.56
2022-08-17T19:46:50.501Z,36.85
2022-08-17T19:49:41.653Z,36.77
2022-08-17T19:52:33.917Z,36.89
2022-08-17T19:55:10.232Z,36.89
2022-08-17T19:57:49.545Z,37.15
2022-08-17T20:00:19.923Z,37.19
2022-08-17T20:02:55.286Z,37.62
2022-08-17T20:05:26.933Z,37.46
2022-08-17T20:08:02.176Z,37.54
2022-08-17T20:10:39.835Z,37.56
2022-08-17T20:13:15.653Z,37.65
2022-08-17T20:15:46.043Z,38.20
2022-08-17T20:18:21.069Z,38.23
2022-08-17T20:20:57.739Z,38.17
2022-08-17T20:23:42.173Z,38.46
2022-08-17T20:26:19.639Z,38.28
2022-08-17T20:29:08.188Z,38.54
2022-08-17T20:31:49.060Z,38.94
2022-08-17T20:34:37.547Z,39.00
2022-08-17T20:37:09.065Z,39.19
2022-08-17T20:39:41.981Z,39.45
2022-08-17T20:42:30.259Z,39.41
2022-08-17T20:45:02.308Z,39.63
2022-08-17T20:47:33.353Z,39.83
2022-08-17T20:50:06.946Z,40.07
2022-08-17T20:52:53.316Z,39.58
2022-08-17T20:55:54.806Z,40.00
2022-08-17T20:58:47.418Z,40.54
2022-08-17T21:01:24.299Z,40.27
2022-08-17T21:03:54.261Z,40.62
2022-08-17T21:06:25.861Z,40.76
2022-08-17T21:08:59.089Z,41.13
2022-08-17T21:12:04.331Z,41.43
2022-08-17T21:14:52.076Z,41.06
2022-08-17T21:17:38.102Z,41.14
2022-08-17T21:20:15.809Z,41.33
2022-08-17T21:22:57.686Z,41.01
2022-08-17T21:25:56.701Z,41.30
2022-08-17T21:28:34.294Z,41.20
2022-08-17T21:31:08.700Z,40.74
2022-08-17T21:33:39.637Z,40.81
2022-08-17T21:36:27.424Z,41.09
2022-08-17T21:39:08.873Z,41.23
2022-08-17T21:41:53.943Z,41.71
2022-08-17T21:44:31.161Z,41.65
2022-08-17T21:47:16.662Z,41.96
2022-08-17T21:49:44.740Z,42.10
2022-08-17T21:52:15.800Z,41.71
2022-08-17T21:54:51.195Z,41.91
2022-08-17T21:57:22.523Z,42.36
2022-08-17T21:59:55.095Z,42.00
2022-08-17T22:02:28.055Z,42.21
2022-08-17T22:05:00.946Z,42.35
2022-08-17T22:07:38.934Z,42.42
2022-08-17T22:10:09.726Z,42.55
2022-08-17T22:12:37.751Z,42.66
2022-08-17T22:15:09.700Z,43.13
2022-08-17T22:17:46.435Z,42.90
2022-08-17T22:20:18.401Z,43.22
2022-08-17T22:23:23.952Z,43.72
2022-08-17T22:26:01.229Z,43.58
2022-08-17T22:28:47.229Z,43.81
2022-08-17T22:31:17.499Z,43.26
2022-08-17T22:33:50.577Z,43.26
2022-08-17T22:36:25.246Z,43.29
2022-08-17T22:38:56.144Z,42.73
2022-08-17T22:41:40.668Z,42.90
2022-08-17T22:44:17.637Z,42.21
2022-08-17T22:47:11.214Z,42.30
2022-08-17T22:49:53.124Z,42.44
2022-08-17T22:52:32.559Z,42.13
2022-08-17T22:55:34.916Z,43.01
2022-08-17T22:58:20.650Z,42.84
2022-08-17T23:00:51.120Z,42.35
2022-08-17T23:03:21.272Z,42.79
2022-08-17T23:06:04.653Z,42.71
2022-08-17T23:08:35.642Z,43.17
2022-08-17T23:11:04.213Z,43.05
2022-08-17T23:13:33.448Z,43.25
2022-08-17T23:16:01.835Z,43.03
2022-08-17T23:18:30.033Z,42.94
2022-08-17T23:21:00.742Z,42.68
2022-08-17T23:23:31.334Z,43.25
2022-08-17T23:25:59.375Z,43.14
2022-08-17T23:28:28.535Z,43.29
2022-08-17T23:30:56.544Z,43.02
2022-08-17T23:33:31.927Z,43.42
2022-08-17T23:36:01.783Z,43.43
2022-08-17T23:38:31.779Z,43.41
2022-08-17T23:41:01.958Z,43.63
2022-08-17T23:43:31.431Z,43.76
2022-08-17T23:46:03.699Z,44.31
2022-08-17T23:48:36.684Z,44.27
2022-08-17T23:51:11.042Z,44.21
2022-08-17T23:53:44.819Z,44.29
2022-08-17T23:56:13.244Z,43.89
2022-08-17T23:58:43.090Z,44.53
